Time;durP1;ratioP1;P1;durP2;ratioP2;P2;SDS_P1;SDS_P2;PMS_P1;PMS_P2;Temp;Humidity;BMP_temperature;BMP_pressure;BME280_temperature;BME280_humidity;BME280_pressure;Samples;Min_cycle;Max_cycle;Signal;HPM_P1;HPM_P2
2021/09/01 00:01:38;;;;;;;10.47;9.37;;;11.90;99.90;;;;;;5072707;28;20615;-79
2021/09/01 00:04:07;;;;;;;10.60;9.60;;;11.80;99.90;;;;;;5064526;28;20687;-79
2021/09/01 00:06:34;;;;;;;9.63;8.83;;;11.80;99.90;;;;;;5059069;28;20682;-79
2021/09/01 00:09:01;;;;;;;10.50;9.50;;;11.80;99.90;;;;;;5072720;28;20677;-79
2021/09/01 00:11:28;;;;;;;11.63;9.40;;;11.70;99.90;;;;;;5066225;28;20617;-79
2021/09/01 00:13:55;;;;;;;11.03;9.93;;;11.70;99.90;;;;;;5056255;28;20622;-79
2021/09/01 00:16:28;;;;;;;9.97;9.00;;;11.60;99.90;;;;;;5059295;28;20702;-79
2021/09/01 00:18:56;;;;;;;11.17;10.00;;;11.70;99.90;;;;;;5052953;28;21007;-79
2021/09/01 00:21:24;;;;;;;12.90;10.50;;;11.70;99.90;;;;;;5070376;28;20660;-79
2021/09/01 00:23:51;;;;;;;12.80;10.57;;;11.70;99.90;;;;;;5071363;28;20704;-79
2021/09/01 00:26:19;;;;;;;9.90;8.67;;;11.60;99.90;;;;;;5063496;28;20681;-79
2021/09/01 00:28:46;;;;;;;11.57;9.90;;;11.60;99.90;;;;;;5062414;28;21138;-79
2021/09/01 00:31:13;;;;;;;11.50;9.90;;;11.60;99.90;;;;;;5069959;28;20683;-79
2021/09/01 00:33:40;;;;;;;10.97;9.80;;;11.60;99.90;;;;;;5063812;28;20738;-79
2021/09/01 00:36:07;;;;;;;11.60;10.40;;;11.60;99.90;;;;;;5058348;28;20633;-79
2021/09/01 00:38:36;;;;;;;10.93;9.87;;;11.60;99.90;;;;;;5052183;28;20628;-79
2021/09/01 00:41:03;;;;;;;14.57;11.13;;;11.60;99.90;;;;;;5052542;28;21687;-79
2021/09/01 00:43:30;;;;;;;11.87;10.70;;;11.50;99.90;;;;;;5050400;28;20670;-79
2021/09/01 00:45:57;;;;;;;12.00;10.80;;;11.50;99.90;;;;;;5054984;28;20693;-79
2021/09/01 00:48:25;;;;;;;15.27;10.33;;;11.50;99.90;;;;;;5052046;28;20687;-78
2021/09/01 00:50:53;;;;;;;10.30;9.20;;;11.40;99.90;;;;;;5061725;28;20690;-79
2021/09/01 00:53:22;;;;;;;13.80;9.80;;;11.40;99.90;;;;;;5066590;28;20687;-79
2021/09/01 00:55:51;;;;;;;11.43;9.10;;;11.40;99.90;;;;;;5060277;28;20690;-79
2021/09/01 00:58:18;;;;;;;12.87;10.30;;;11.40;99.90;;;;;;5071072;28;20676;-78
2021/09/01 01:01:01;;;;;;;12.53;10.47;;;11.40;99.90;;;;;;5063802;28;20721;-79
2021/09/01 01:03:29;;;;;;;11.43;10.23;;;11.40;99.90;;;;;;5050987;28;20637;-79
2021/09/01 01:05:59;;;;;;;11.23;9.90;;;11.40;99.90;;;;;;5052813;28;20994;-79
2021/09/01 01:08:28;;;;;;;11.87;10.67;;;11.40;99.90;;;;;;5068029;28;20628;-79
2021/09/01 01:10:58;;;;;;;10.50;9.50;;;11.40;99.90;;;;;;5069155;28;20717;-79
2021/09/01 01:13:26;;;;;;;11.87;10.60;;;11.40;99.90;;;;;;5064696;28;20645;-79
2021/09/01 01:15:55;;;;;;;10.27;9.27;;;11.40;99.90;;;;;;5056011;28;20650;-79
2021/09/01 01:18:25;;;;;;;10.90;9.77;;;11.40;99.90;;;;;;5055276;28;20639;-79
2021/09/01 01:20:55;;;;;;;10.57;9.47;;;11.40;99.90;;;;;;5055341;28;20728;-79
2021/09/01 01:23:25;;;;;;;11.77;9.40;;;11.30;99.90;;;;;;5050380;28;20818;-78
2021/09/01 01:25:55;;;;;;;11.43;9.93;;;11.30;99.90;;;;;;5058768;28;20623;-79
2021/09/01 01:28:23;;;;;;;12.37;10.13;;;11.30;99.90;;;;;;5062130;28;20635;-79
2021/09/01 01:31:03;;;;;;;11.10;9.87;;;11.30;99.90;;;;;;5069428;28;20789;-80
2021/09/01 01:33:31;;;;;;;12.73;9.60;;;11.30;99.90;;;;;;5070352;28;20707;-80
2021/09/01 01:35:59;;;;;;;13.20;10.73;;;11.30;99.90;;;;;;5065084;28;20762;-80
2021/09/01 01:38:27;;;;;;;11.30;10.10;;;11.40;99.90;;;;;;5054015;28;20657;-80
2021/09/01 01:40:56;;;;;;;11.80;10.40;;;11.30;99.90;;;;;;5060139;28;20674;-79
2021/09/01 01:43:24;;;;;;;11.90;10.27;;;11.30;99.90;;;;;;5052300;28;20723;-79
2021/09/01 01:45:53;;;;;;;11.33;10.23;;;11.30;99.90;;;;;;5057686;28;21023;-79
2021/09/01 01:48:24;;;;;;;16.47;11.10;;;11.30;99.90;;;;;;5050305;28;21077;-79
2021/09/01 01:50:54;;;;;;;12.10;10.17;;;11.30;99.90;;;;;;5050883;28;21072;-79
2021/09/01 01:53:28;;;;;;;11.20;10.10;;;11.30;99.90;;;;;;5057217;28;20629;-79
2021/09/01 01:55:59;;;;;;;11.40;10.10;;;11.40;99.90;;;;;;5067010;28;21042;-79
2021/09/01 01:58:27;;;;;;;13.70;11.20;;;11.40;99.90;;;;;;5070419;28;20687;-79
2021/09/01 02:00:55;;;;;;;13.27;11.00;;;11.30;99.90;;;;;;5059221;28;20666;-78
2021/09/01 02:03:23;;;;;;;12.40;11.20;;;11.20;99.90;;;;;;5058698;28;21191;-78
2021/09/01 02:05:51;;;;;;;13.37;11.87;;;11.20;99.90;;;;;;5067269;28;20631;-79
2021/09/01 02:08:19;;;;;;;14.87;12.57;;;11.20;99.90;;;;;;5066782;28;21010;-79
2021/09/01 02:10:49;;;;;;;15.23;12.20;;;11.20;99.90;;;;;;5068974;28;20635;-79
2021/09/01 02:13:18;;;;;;;14.60;12.30;;;11.20;99.90;;;;;;5066429;28;20642;-79
2021/09/01 02:15:47;;;;;;;14.20;12.10;;;11.20;99.90;;;;;;5053725;28;20619;-80
2021/09/01 02:18:15;;;;;;;13.73;10.40;;;11.10;99.90;;;;;;5052819;28;20659;-80
2021/09/01 02:20:43;;;;;;;14.37;11.77;;;11.10;99.90;;;;;;5064228;28;20662;-80
2021/09/01 02:23:11;;;;;;;13.87;12.50;;;11.10;99.90;;;;;;5074351;28;20639;-80
2021/09/01 02:25:39;;;;;;;13.77;12.20;;;11.10;99.90;;;;;;5066080;28;20705;-80
2021/09/01 02:28:07;;;;;;;13.70;11.17;;;11.10;99.90;;;;;;5049847;28;20616;-80
2021/09/01 02:30:36;;;;;;;13.60;10.37;;;11.10;99.90;;;;;;5061762;28;20634;-80
2021/09/01 02:33:05;;;;;;;14.60;12.50;;;11.10;99.90;;;;;;5058350;28;20658;-80
2021/09/01 02:35:33;;;;;;;15.53;11.70;;;11.10;99.90;;;;;;5070048;28;21063;-80
2021/09/01 02:38:04;;;;;;;13.20;11.13;;;11.10;99.90;;;;;;5055394;28;20654;-80
2021/09/01 02:40:31;;;;;;;16.70;11.60;;;11.10;99.90;;;;;;5054028;28;20994;-80
2021/09/01 02:43:00;;;;;;;12.50;11.20;;;11.10;99.90;;;;;;5075509;28;20624;-80
2021/09/01 02:45:28;;;;;;;13.60;11.70;;;11.10;99.90;;;;;;5059028;28;20725;-80
2021/09/01 02:47:58;;;;;;;13.33;11.20;;;11.00;99.90;;;;;;5057568;28;21210;-80
2021/09/01 02:50:31;;;;;;;15.90;12.10;;;11.00;99.90;;;;;;5060355;28;20641;-80
2021/09/01 02:53:00;;;;;;;12.87;11.47;;;11.00;99.90;;;;;;5075835;28;20629;-80
2021/09/01 02:55:29;;;;;;;14.47;12.97;;;10.90;99.90;;;;;;5075200;28;20657;-80
2021/09/01 02:57:57;;;;;;;13.83;12.37;;;10.90;99.90;;;;;;5076378;28;20625;-80
2021/09/01 03:00:25;;;;;;;14.07;12.00;;;10.90;99.90;;;;;;5073031;28;20646;-80
2021/09/01 03:02:52;;;;;;;13.70;10.80;;;10.80;99.90;;;;;;5057534;28;20776;-79
2021/09/01 03:05:20;;;;;;;14.63;12.10;;;10.90;99.90;;;;;;5075936;28;20601;-79
2021/09/01 03:07:47;;;;;;;13.20;10.87;;;10.90;99.90;;;;;;5069565;28;21173;-80
2021/09/01 03:10:14;;;;;;;14.00;11.50;;;10.80;99.90;;;;;;5075753;28;20617;-79
2021/09/01 03:12:41;;;;;;;14.57;12.67;;;10.80;99.90;;;;;;5055654;28;20618;-79
2021/09/01 03:15:09;;;;;;;14.97;13.47;;;10.80;99.90;;;;;;5069725;28;21170;-79
2021/09/01 03:17:36;;;;;;;14.80;12.33;;;10.80;99.90;;;;;;5076188;28;20609;-80
2021/09/01 03:20:04;;;;;;;15.83;12.40;;;10.80;99.90;;;;;;5066553;28;20728;-80
2021/09/01 03:22:32;;;;;;;12.50;10.57;;;10.80;99.90;;;;;;5059610;28;21177;-80
2021/09/01 03:24:59;;;;;;;18.77;13.87;;;10.70;99.90;;;;;;5063928;28;21210;-79
2021/09/01 03:27:26;;;;;;;14.67;12.90;;;10.70;99.90;;;;;;5070594;28;20626;-79
2021/09/01 03:29:53;;;;;;;17.90;14.40;;;10.70;99.90;;;;;;5062242;28;20641;-80
2021/09/01 03:32:20;;;;;;;16.90;14.00;;;10.70;99.90;;;;;;5057923;28;20623;-79
2021/09/01 03:34:47;;;;;;;15.00;11.97;;;10.70;99.90;;;;;;5060024;28;21339;-79
2021/09/01 03:37:14;;;;;;;16.40;14.40;;;10.70;99.90;;;;;;5076094;28;20621;-80
2021/09/01 03:39:42;;;;;;;15.43;13.40;;;10.70;99.90;;;;;;5066898;28;20618;-80
2021/09/01 03:42:09;;;;;;;20.07;14.20;;;10.70;99.90;;;;;;5058976;28;20622;-80
2021/09/01 03:44:36;;;;;;;17.60;12.37;;;10.70;99.90;;;;;;5074063;28;20636;-80
2021/09/01 03:47:03;;;;;;;14.93;12.40;;;10.70;99.90;;;;;;5074230;28;20972;-80
2021/09/01 03:49:30;;;;;;;19.80;15.47;;;10.70;99.90;;;;;;5056488;28;20676;-80
2021/09/01 03:51:57;;;;;;;18.33;15.83;;;10.60;99.90;;;;;;5067872;28;21244;-80
2021/09/01 03:54:24;;;;;;;17.27;15.10;;;10.70;99.90;;;;;;5071731;28;20620;-80
2021/09/01 03:56:53;;;;;;;16.00;14.00;;;10.60;99.90;;;;;;5061519;28;20614;-80
2021/09/01 03:59:19;;;;;;;18.27;14.70;;;10.60;99.90;;;;;;5064485;28;20675;-79
2021/09/01 04:01:47;;;;;;;18.77;13.77;;;10.60;99.90;;;;;;5058744;28;20666;-80
2021/09/01 04:04:14;;;;;;;19.53;14.40;;;10.70;99.90;;;;;;5053942;28;20618;-80
2021/09/01 04:06:41;;;;;;;18.23;13.60;;;10.60;99.90;;;;;;5070742;28;20733;-80
2021/09/01 04:09:08;;;;;;;17.07;14.30;;;10.60;99.90;;;;;;5052912;28;21078;-80
2021/09/01 04:11:35;;;;;;;17.20;14.47;;;10.60;99.90;;;;;;5059746;28;20632;-80
2021/09/01 04:14:03;;;;;;;14.07;12.30;;;10.60;99.90;;;;;;5067371;28;20683;-80
2021/09/01 04:16:30;;;;;;;16.23;14.03;;;10.50;99.90;;;;;;5051018;28;20662;-80
2021/09/01 04:18:57;;;;;;;22.63;15.70;;;10.60;99.90;;;;;;5056058;28;20629;-79
2021/09/01 04:21:24;;;;;;;22.70;14.20;;;10.60;99.90;;;;;;5061903;28;20666;-79
2021/09/01 04:23:51;;;;;;;15.57;13.83;;;10.60;99.90;;;;;;5054475;28;21052;-80
2021/09/01 04:26:17;;;;;;;21.10;14.80;;;10.50;99.90;;;;;;5071763;28;20641;-80
2021/09/01 04:28:44;;;;;;;19.23;14.90;;;10.50;99.90;;;;;;5056322;28;21019;-79
2021/09/01 04:31:12;;;;;;;20.10;15.70;;;10.50;99.90;;;;;;5053371;28;20684;-80
2021/09/01 04:33:39;;;;;;;22.77;16.23;;;10.60;99.90;;;;;;5051803;28;20610;-80
2021/09/01 04:36:06;;;;;;;21.20;16.00;;;10.70;99.90;;;;;;5060954;28;20622;-79
2021/09/01 04:38:33;;;;;;;20.73;16.10;;;10.70;99.90;;;;;;5052146;28;20649;-80
2021/09/01 04:41:00;;;;;;;16.90;13.73;;;10.70;99.90;;;;;;5050979;28;20678;-80
2021/09/01 04:43:27;;;;;;;18.53;14.20;;;10.70;99.90;;;;;;5055788;28;20657;-80
2021/09/01 04:45:54;;;;;;;15.77;14.10;;;10.60;99.90;;;;;;5060793;28;20634;-80
2021/09/01 04:48:24;;;;;;;16.67;13.90;;;10.50;99.90;;;;;;5057732;28;21034;-80
2021/09/01 04:50:51;;;;;;;15.70;14.00;;;10.50;99.90;;;;;;5071542;28;20629;-80
2021/09/01 04:53:18;;;;;;;19.30;15.30;;;10.60;99.90;;;;;;5064593;28;20622;-80
2021/09/01 04:55:45;;;;;;;14.53;12.00;;;10.60;99.90;;;;;;5052321;28;20670;-80
2021/09/01 04:58:13;;;;;;;14.90;11.57;;;10.50;99.90;;;;;;5054848;28;20680;-80
2021/09/01 05:00:40;;;;;;;13.63;12.00;;;10.50;99.90;;;;;;5071385;28;20656;-80
2021/09/01 05:03:07;;;;;;;13.53;12.13;;;10.40;99.90;;;;;;5055699;28;20622;-80
2021/09/01 05:05:36;;;;;;;14.20;12.30;;;10.50;99.90;;;;;;5056245;28;20667;-80
2021/09/01 05:08:03;;;;;;;15.10;12.43;;;10.40;99.90;;;;;;5070707;28;20663;-80
2021/09/01 05:10:31;;;;;;;13.97;12.43;;;10.40;99.90;;;;;;5066249;28;20662;-80
2021/09/01 05:12:58;;;;;;;13.60;11.87;;;10.40;99.90;;;;;;5065828;28;20626;-80
2021/09/01 05:15:25;;;;;;;15.33;11.83;;;10.40;99.90;;;;;;5057307;28;20622;-80
2021/09/01 05:17:52;;;;;;;16.10;12.23;;;10.40;99.90;;;;;;5048303;28;20622;-80
2021/09/01 05:20:19;;;;;;;13.60;11.27;;;10.40;99.90;;;;;;5070685;28;20629;-79
2021/09/01 05:22:48;;;;;;;12.50;10.80;;;10.40;99.90;;;;;;5070095;28;21008;-80
2021/09/01 05:25:16;;;;;;;11.83;10.47;;;10.40;99.90;;;;;;5081411;28;20611;-80
2021/09/01 05:27:46;;;;;;;15.17;12.73;;;10.50;99.90;;;;;;5062485;28;20692;-79
2021/09/01 05:30:15;;;;;;;13.43;11.90;;;10.50;99.90;;;;;;5052918;28;20625;-80
2021/09/01 05:32:44;;;;;;;10.90;9.73;;;10.50;99.90;;;;;;5068164;28;20621;-80
2021/09/01 05:35:13;;;;;;;12.23;10.53;;;10.50;99.90;;;;;;5068291;28;20723;-80
2021/09/01 05:37:44;;;;;;;13.60;11.77;;;10.50;99.90;;;;;;5062898;28;20630;-80
2021/09/01 05:40:14;;;;;;;13.97;11.80;;;10.60;99.90;;;;;;5067937;28;20938;-79
2021/09/01 05:42:41;;;;;;;16.67;11.73;;;10.60;99.90;;;;;;5064413;28;20621;-79
2021/09/01 05:45:09;;;;;;;12.87;11.00;;;10.70;99.90;;;;;;5062263;28;20680;-79
2021/09/01 05:47:36;;;;;;;12.20;10.50;;;10.80;99.90;;;;;;5068019;28;21257;-79
2021/09/01 05:50:05;;;;;;;14.47;11.33;;;10.80;99.90;;;;;;5064059;28;20599;-79
2021/09/01 05:52:32;;;;;;;19.20;12.07;;;10.90;99.90;;;;;;5051867;28;20694;-79
2021/09/01 05:55:03;;;;;;;15.50;12.57;;;10.90;99.90;;;;;;5059482;28;20973;-79
2021/09/01 05:57:35;;;;;;;17.77;11.93;;;11.00;99.90;;;;;;5055967;28;20634;-79
2021/09/01 06:00:07;;;;;;;13.90;12.37;;;11.10;99.90;;;;;;5055215;28;20692;-80
2021/09/01 06:02:40;;;;;;;16.40;12.10;;;11.10;99.90;;;;;;5063089;28;21299;-80
2021/09/01 06:05:09;;;;;;;13.33;11.40;;;11.30;99.90;;;;;;5063006;28;20634;-80
2021/09/01 06:07:39;;;;;;;14.30;12.80;;;11.30;99.90;;;;;;5058656;28;20634;-79
2021/09/01 06:10:09;;;;;;;14.37;11.30;;;11.40;99.90;;;;;;5063695;28;20642;-79
2021/09/01 06:12:39;;;;;;;14.60;11.87;;;11.50;99.90;;;;;;5057192;28;20719;-80
2021/09/01 06:15:06;;;;;;;16.90;13.60;;;11.60;99.90;;;;;;5059710;28;20755;-80
2021/09/01 06:17:33;;;;;;;23.20;15.40;;;11.70;99.90;;;;;;5064840;28;20663;-80
2021/09/01 06:20:00;;;;;;;18.87;14.20;;;11.90;99.90;;;;;;5069848;28;21206;-80
2021/09/01 06:22:27;;;;;;;17.83;14.67;;;12.00;99.90;;;;;;5064598;28;20727;-80
2021/09/01 06:24:54;;;;;;;25.30;16.60;;;12.10;99.90;;;;;;5060891;28;20635;-80
2021/09/01 06:27:21;;;;;;;20.03;15.30;;;12.20;99.90;;;;;;5057236;28;20673;-81
2021/09/01 06:29:49;;;;;;;19.83;16.70;;;12.30;99.90;;;;;;5062367;28;20627;-81
2021/09/01 06:32:16;;;;;;;22.20;14.63;;;12.30;99.90;;;;;;5056491;28;20637;-81
2021/09/01 06:34:43;;;;;;;21.20;14.37;;;12.50;99.90;;;;;;5054370;28;20736;-81
2021/09/01 06:37:11;;;;;;;20.87;15.30;;;12.50;99.90;;;;;;5061430;28;20636;-82
2021/09/01 06:39:37;;;;;;;21.83;15.90;;;12.50;99.90;;;;;;5057976;28;20664;-81
2021/09/01 06:42:05;;;;;;;16.60;13.37;;;12.60;99.90;;;;;;5051662;28;20658;-82
2021/09/01 06:44:32;;;;;;;14.57;12.97;;;12.80;99.90;;;;;;5059513;28;20631;-82
2021/09/01 06:47:03;;;;;;;22.00;15.27;;;12.90;99.90;;;;;;5056344;28;20709;-82
2021/09/01 06:49:30;;;;;;;20.57;15.13;;;13.00;99.90;;;;;;5061233;28;20637;-82
2021/09/01 06:51:57;;;;;;;22.17;15.60;;;13.00;99.90;;;;;;5063012;28;20628;-81
2021/09/01 06:54:24;;;;;;;19.67;16.10;;;13.10;99.90;;;;;;5062035;28;20659;-82
2021/09/01 06:56:51;;;;;;;22.70;14.80;;;13.10;99.90;;;;;;5055530;28;20624;-82
2021/09/01 06:59:18;;;;;;;19.13;15.97;;;13.30;99.90;;;;;;5060582;28;20632;-83
2021/09/01 07:01:45;;;;;;;19.13;14.93;;;13.40;99.90;;;;;;5057610;28;20678;-82
2021/09/01 07:04:13;;;;;;;18.73;14.50;;;13.40;99.90;;;;;;5059074;28;20679;-82
2021/09/01 07:06:40;;;;;;;18.00;15.17;;;13.40;99.90;;;;;;5060869;28;20633;-83
2021/09/01 07:09:07;;;;;;;20.37;16.47;;;13.40;99.90;;;;;;5057410;28;20629;-84
2021/09/01 07:11:34;;;;;;;19.63;15.60;;;13.40;99.90;;;;;;5052415;28;20634;-83
2021/09/01 07:14:01;;;;;;;19.87;14.93;;;13.70;99.90;;;;;;5063888;28;20625;-83
2021/09/01 07:16:48;;;;;;;18.97;16.43;;;13.80;99.90;;;;;;5058098;28;20635;-84
2021/09/01 07:19:16;;;;;;;20.73;16.73;;;13.80;99.90;;;;;;5058075;28;20740;-83
2021/09/01 07:21:43;;;;;;;18.77;15.10;;;13.70;99.90;;;;;;5056556;28;20673;-83
2021/09/01 07:24:10;;;;;;;21.57;15.27;;;13.60;99.90;;;;;;5061599;28;21002;-83
2021/09/01 07:26:52;;;;;;;17.77;14.90;;;14.00;99.90;;;;;;5059073;28;21150;-84
2021/09/01 07:29:19;;;;;;;21.97;14.50;;;14.10;99.90;;;;;;5061201;28;20612;-81
2021/09/01 07:31:46;;;;;;;19.30;15.80;;;14.20;99.90;;;;;;5062491;28;20654;-83
2021/09/01 07:34:13;;;;;;;33.53;16.50;;;14.40;99.90;;;;;;5059599;28;21116;-81
2021/09/01 07:36:41;;;;;;;17.63;14.27;;;14.50;99.90;;;;;;5060263;28;20671;-81
2021/09/01 07:39:08;;;;;;;16.70;14.90;;;14.50;99.90;;;;;;5060510;28;20637;-84
2021/09/01 07:41:37;;;;;;;19.60;15.60;;;14.40;99.90;;;;;;5059517;28;20669;-83
2021/09/01 07:44:04;;;;;;;19.30;16.30;;;14.60;99.90;;;;;;5064625;28;20704;-83
2021/09/01 07:46:31;;;;;;;18.70;16.13;;;14.80;99.90;;;;;;5063929;28;21221;-83
2021/09/01 07:49:00;;;;;;;17.47;15.10;;;15.00;99.90;;;;;;5060146;28;20683;-82
2021/09/01 07:51:27;;;;;;;16.43;14.60;;;15.10;99.90;;;;;;5061028;28;20625;-82
2021/09/01 07:53:57;;;;;;;19.00;15.73;;;15.00;99.90;;;;;;5061719;28;21171;-82
2021/09/01 07:56:27;;;;;;;17.00;14.33;;;15.30;99.90;;;;;;5062855;28;20625;-84
2021/09/01 07:58:54;;;;;;;15.87;13.90;;;15.10;99.90;;;;;;5062824;28;20746;-83
2021/09/01 08:01:21;;;;;;;15.20;13.70;;;15.30;99.90;;;;;;5072492;28;21304;-82
2021/09/01 08:03:47;;;;;;;16.90;13.27;;;15.60;99.90;;;;;;5072795;28;21104;-83
2021/09/01 08:06:14;;;;;;;13.50;12.10;;;15.70;99.90;;;;;;5072949;28;20625;-82
2021/09/01 08:08:41;;;;;;;15.23;13.70;;;15.80;99.90;;;;;;5066902;28;20614;-83
2021/09/01 08:11:09;;;;;;;13.57;11.87;;;16.00;99.90;;;;;;5072941;28;20597;-83
2021/09/01 08:13:36;;;;;;;13.60;12.20;;;16.10;99.90;;;;;;5071906;28;20622;-82
2021/09/01 08:16:04;;;;;;;11.83;10.63;;;16.10;99.90;;;;;;5072940;28;20650;-82
2021/09/01 08:18:31;;;;;;;12.77;11.50;;;16.30;99.90;;;;;;5072650;28;20684;-82
2021/09/01 08:20:58;;;;;;;15.07;11.70;;;16.40;99.90;;;;;;5073005;28;20617;-83
2021/09/01 08:23:24;;;;;;;14.80;13.03;;;16.40;99.90;;;;;;5072456;28;20656;-82
2021/09/01 08:25:51;;;;;;;15.83;12.33;;;16.40;99.90;;;;;;5072592;28;20646;-83
2021/09/01 08:28:19;;;;;;;14.17;12.70;;;16.50;99.90;;;;;;5072387;28;21164;-82
2021/09/01 08:30:46;;;;;;;13.30;11.53;;;16.60;99.90;;;;;;5072733;28;20656;-82
2021/09/01 08:33:13;;;;;;;14.30;11.77;;;16.60;99.90;;;;;;5070640;28;20683;-82
2021/09/01 08:35:41;;;;;;;12.03;10.67;;;16.70;99.90;;;;;;5071523;28;21110;-82
2021/09/01 08:38:08;;;;;;;11.27;10.17;;;16.80;99.90;;;;;;5072365;28;20658;-83
2021/09/01 08:40:35;;;;;;;12.23;11.03;;;16.90;99.90;;;;;;5071540;28;20676;-82
2021/09/01 08:43:02;;;;;;;13.50;12.03;;;17.10;99.90;;;;;;5066937;28;20663;-83
2021/09/01 08:45:30;;;;;;;13.60;11.60;;;17.20;99.90;;;;;;5072212;28;20624;-83
2021/09/01 08:47:58;;;;;;;13.27;11.97;;;17.40;99.90;;;;;;5071991;28;21250;-83
2021/09/01 08:50:29;;;;;;;14.70;12.63;;;17.30;99.90;;;;;;5059989;28;21238;-82
2021/09/01 08:52:56;;;;;;;14.80;12.50;;;17.40;99.90;;;;;;5058339;28;20723;-83
2021/09/01 08:55:23;;;;;;;15.30;13.83;;;17.40;99.90;;;;;;5065312;28;20632;-83
2021/09/01 08:57:50;;;;;;;11.50;10.40;;;17.60;99.90;;;;;;5060383;28;21048;-83
2021/09/01 09:00:17;;;;;;;12.57;11.27;;;17.60;99.90;;;;;;5058802;28;20630;-83
2021/09/01 09:02:55;;;;;;;12.63;11.33;;;17.70;99.90;;;;;;5061940;28;20681;-82
2021/09/01 09:05:37;;;;;;;11.50;9.70;;;17.70;99.90;;;;;;5059389;28;20644;-83
2021/09/01 09:08:09;;;;;;;9.43;8.50;;;17.80;99.90;;;;;;5059369;28;20641;-82
2021/09/01 09:10:40;;;;;;;10.10;9.10;;;17.90;99.90;;;;;;5063183;28;21165;-83
2021/09/01 09:13:09;;;;;;;10.40;8.70;;;17.90;99.90;;;;;;5061625;28;20640;-83
2021/09/01 09:15:37;;;;;;;10.20;8.60;;;17.90;99.90;;;;;;5065510;28;20679;-82
2021/09/01 09:18:27;;;;;;;10.53;9.63;;;18.10;99.90;;;;;;5060892;28;21198;-83
2021/09/01 09:21:18;;;;;;;9.50;8.60;;;18.20;99.90;;;;;;5062117;28;20625;-84
2021/09/01 09:23:46;;;;;;;10.33;9.30;;;18.00;99.90;;;;;;5051133;28;20719;-82
2021/09/01 09:26:44;;;;;;;;;;;;;;;;;;;;;
2021/09/01 09:29:20;;;;;;;8.43;7.63;;;18.00;99.90;;;;;;5063663;28;20767;-83
2021/09/01 09:32:01;;;;;;;7.67;7.00;;;18.20;99.90;;;;;;5063531;28;20972;-83
2021/09/01 09:34:39;;;;;;;6.97;6.37;;;18.40;99.90;;;;;;5061342;28;21027;-84
2021/09/01 09:37:08;;;;;;;7.77;6.97;;;18.40;99.90;;;;;;5062904;28;20630;-85
2021/09/01 09:39:52;;;;;;;7.20;6.60;;;18.60;99.90;;;;;;5064154;28;20975;-82
2021/09/01 09:42:31;;;;;;;7.70;7.00;;;18.80;99.80;;;;;;5061509;28;20661;-83
2021/09/01 09:44:59;;;;;;;7.97;7.27;;;19.00;97.90;;;;;;5057207;28;20667;-82
2021/09/01 09:47:47;;;;;;;8.50;6.53;;;19.10;98.10;;;;;;5059214;28;20959;-82
2021/09/01 09:50:16;;;;;;;5.30;4.80;;;19.10;99.30;;;;;;5059742;28;20648;-81
2021/09/01 09:52:43;;;;;;;7.10;6.40;;;19.20;96.40;;;;;;5060525;28;20661;-81
2021/09/01 09:55:11;;;;;;;6.30;5.50;;;19.30;96.90;;;;;;5060297;28;20614;-81
2021/09/01 09:57:48;;;;;;;6.20;5.60;;;19.40;96.00;;;;;;5059344;28;20622;-82
2021/09/01 10:00:16;;;;;;;6.30;5.80;;;19.30;95.50;;;;;;5057778;28;20625;-82
2021/09/01 10:02:43;;;;;;;6.23;5.70;;;19.30;95.60;;;;;;5060103;28;20706;-82
2021/09/01 10:05:13;;;;;;;6.17;5.57;;;19.40;95.10;;;;;;5060523;28;20741;-82
2021/09/01 10:07:46;;;;;;;5.97;5.47;;;19.40;94.90;;;;;;5057208;28;20729;-82
2021/09/01 10:10:14;;;;;;;4.60;4.20;;;19.50;94.40;;;;;;5058626;28;20668;-84
2021/09/01 10:12:42;;;;;;;6.27;5.67;;;19.60;94.20;;;;;;5056970;28;20638;-83
2021/09/01 10:18:27;;;;;;;5.13;4.73;;;19.80;93.10;;;;;;5054799;28;20803;-83
2021/09/01 10:21:12;;;;;;;6.53;5.73;;;19.80;93.20;;;;;;5058552;28;21247;-82
2021/09/01 10:23:50;;;;;;;5.70;5.30;;;19.80;92.50;;;;;;5067424;28;21227;-83
2021/09/01 10:26:41;;;;;;;6.73;5.07;;;20.00;92.20;;;;;;5071565;28;20627;-82
2021/09/01 10:29:48;;;;;;;4.87;4.47;;;20.00;93.40;;;;;;5050582;28;20614;-83
2021/09/01 10:32:47;;;;;;;5.77;5.17;;;20.10;92.60;;;;;;5053377;28;20632;-83
2021/09/01 10:35:36;;;;;;;6.60;5.20;;;20.10;90.80;;;;;;5048820;28;20739;-81
2021/09/01 10:38:06;;;;;;;5.40;4.90;;;20.20;90.30;;;;;;5050487;28;20619;-81
2021/09/01 10:41:04;;;;;;;5.53;5.03;;;20.20;91.40;;;;;;5049567;28;20726;-81
2021/09/01 10:43:32;;;;;;;5.60;5.03;;;20.40;91.30;;;;;;5049653;28;20644;-81
2021/09/01 10:45:58;;;;;;;5.90;5.27;;;20.40;91.50;;;;;;5050313;28;20624;-81
2021/09/01 10:48:26;;;;;;;6.23;5.63;;;20.60;90.90;;;;;;5050858;28;20677;-81
2021/09/01 10:50:53;;;;;;;6.00;5.40;;;20.70;88.90;;;;;;5069238;28;21037;-81
2021/09/01 10:53:25;;;;;;;6.00;5.40;;;20.80;89.90;;;;;;5070150;28;20684;-81
2021/09/01 10:55:56;;;;;;;6.20;5.70;;;20.90;90.00;;;;;;5068285;28;20621;-81
2021/09/01 10:58:37;;;;;;;6.30;5.70;;;21.00;89.50;;;;;;5069743;28;20613;-81
2021/09/01 11:01:09;;;;;;;6.60;5.10;;;20.80;88.50;;;;;;5070195;28;20617;-81
2021/09/01 11:03:39;;;;;;;6.10;5.60;;;21.10;88.30;;;;;;5073617;28;20709;-81
2021/09/01 11:06:21;;;;;;;6.20;5.60;;;21.10;89.90;;;;;;5070160;28;20644;-82
2021/09/01 11:09:03;;;;;;;5.93;5.27;;;21.40;90.40;;;;;;5050938;28;20631;-81
2021/09/01 11:11:59;;;;;;;5.47;5.00;;;21.50;87.70;;;;;;5051975;28;20650;-83
2021/09/01 11:14:36;;;;;;;7.30;6.70;;;21.70;86.50;;;;;;5061255;28;20641;-82
2021/09/01 11:17:07;;;;;;;5.97;5.20;;;22.10;88.10;;;;;;5062281;28;20719;-81
2021/09/01 11:19:34;;;;;;;7.77;6.17;;;22.10;86.00;;;;;;5064266;28;20663;-81
2021/09/01 11:22:06;;;;;;;5.77;5.27;;;21.70;88.90;;;;;;5066935;28;20644;-82
2021/09/01 11:24:48;;;;;;;6.67;6.07;;;21.60;89.60;;;;;;5066183;28;20620;-81
2021/09/01 11:27:16;;;;;;;6.60;6.10;;;21.50;88.20;;;;;;5067707;28;21037;-81
2021/09/01 11:29:45;;;;;;;10.37;6.30;;;21.70;91.00;;;;;;5063313;28;20612;-81
2021/09/01 11:32:16;;;;;;;7.33;5.87;;;21.80;89.80;;;;;;5064195;28;20618;-82
2021/09/01 11:34:43;;;;;;;6.83;6.13;;;22.30;87.00;;;;;;5063535;28;20617;-81
2021/09/01 11:37:14;;;;;;;6.50;5.77;;;22.30;86.90;;;;;;5064372;28;20624;-80
2021/09/01 11:39:42;;;;;;;6.80;6.10;;;22.20;87.90;;;;;;5062681;28;20610;-81
2021/09/01 11:42:10;;;;;;;5.63;5.13;;;22.50;84.60;;;;;;5061707;28;20663;-81
2021/09/01 11:44:37;;;;;;;5.70;5.30;;;22.70;84.80;;;;;;5053409;28;20614;-81
2021/09/01 11:47:10;;;;;;;6.63;6.13;;;23.00;89.40;;;;;;5054015;28;20622;-81
2021/09/01 11:49:37;;;;;;;6.17;5.67;;;22.80;87.80;;;;;;5053078;28;20705;-81
2021/09/01 11:52:04;;;;;;;6.10;5.60;;;22.40;87.20;;;;;;5060200;28;20666;-81
2021/09/01 11:54:31;;;;;;;5.20;4.80;;;22.00;86.00;;;;;;5063782;28;20617;-82
2021/09/01 11:56:58;;;;;;;5.90;5.40;;;21.70;86.00;;;;;;5065645;28;20613;-82
2021/09/01 11:59:26;;;;;;;5.40;5.00;;;21.80;85.00;;;;;;5061927;28;20727;-81
2021/09/01 12:01:56;;;;;;;5.50;5.10;;;21.60;85.50;;;;;;5060512;28;20630;-82
2021/09/01 12:04:26;;;;;;;5.90;5.40;;;22.00;86.90;;;;;;5059796;28;20704;-81
2021/09/01 12:06:54;;;;;;;6.33;5.80;;;23.30;87.40;;;;;;5062108;28;20694;-80
2021/09/01 12:09:23;;;;;;;5.23;4.87;;;24.40;82.10;;;;;;5055482;28;20733;-81
2021/09/01 12:11:52;;;;;;;5.37;4.93;;;24.40;76.30;;;;;;5059486;28;20664;-84
2021/09/01 12:14:24;;;;;;;5.97;5.47;;;24.00;74.10;;;;;;5058901;28;20694;-83
2021/09/01 12:16:53;;;;;;;6.77;6.00;;;23.10;75.90;;;;;;5063947;28;20621;-84
2021/09/01 12:19:27;;;;;;;6.40;5.10;;;22.90;77.30;;;;;;5068047;28;20641;-84
2021/09/01 12:22:02;;;;;;;5.63;5.13;;;22.70;75.20;;;;;;5064000;28;20703;-83
2021/09/01 12:24:35;;;;;;;5.90;4.70;;;22.60;76.90;;;;;;5061496;28;20730;-81
2021/09/01 12:27:13;;;;;;;5.40;4.90;;;22.50;78.80;;;;;;5063972;28;20640;-84
2021/09/01 12:29:52;;;;;;;5.43;5.10;;;22.20;79.70;;;;;;5064202;28;20637;-83
2021/09/01 12:32:22;;;;;;;5.70;5.30;;;22.10;79.00;;;;;;5057365;28;20642;-82
2021/09/01 12:34:54;;;;;;;6.53;5.90;;;21.90;81.60;;;;;;5059098;28;20648;-82
2021/09/01 12:37:29;;;;;;;7.00;6.40;;;22.00;84.70;;;;;;5060883;28;20625;-84
2021/09/01 12:40:01;;;;;;;5.93;5.23;;;22.10;79.70;;;;;;5061293;28;20648;-83
2021/09/01 12:42:33;;;;;;;6.10;5.60;;;22.00;80.80;;;;;;5061138;28;20630;-82
2021/09/01 12:45:05;;;;;;;5.90;5.40;;;22.10;79.90;;;;;;5060232;28;21210;-81
2021/09/01 12:47:33;;;;;;;5.67;5.17;;;22.20;82.10;;;;;;5061124;28;20652;-81
2021/09/01 12:50:05;;;;;;;6.50;5.73;;;22.20;84.20;;;;;;5064460;28;20613;-82